sensor_id;sensor_type;location;lat;lon;timestamp;P1;durP1;ratioP1;P2;durP2;ratioP2
21822;SDS011;11074;48.596;9.238;2023-02-11T00:00:14;40.08;;;21.60;;
21822;SDS011;11074;48.596;9.238;2023-02-11T00:02:41;39.25;;;20.88;;
21822;SDS011;11074;48.596;9.238;2023-02-11T00:05:07;41.72;;;21.27;;
21822;SDS011;11074;48.596;9.238;2023-02-11T00:07:33;39.88;;;21.95;;
21822;SDS011;11074;48.596;9.238;2023-02-11T00:10:00;43.10;;;21.77;;
21822;SDS011;11074;48.596;9.238;2023-02-11T00:12:31;41.28;;;21.75;;
21822;SDS011;11074;48.596;9.238;2023-02-11T00:14:59;41.40;;;20.08;;
21822;SDS011;11074;48.596;9.238;2023-02-11T00:17:24;40.05;;;20.02;;
21822;SDS011;11074;48.596;9.238;2023-02-11T00:19:50;33.25;;;19.55;;
21822;SDS011;11074;48.596;9.238;2023-02-11T00:22:17;36.53;;;19.27;;
21822;SDS011;11074;48.596;9.238;2023-02-11T00:24:43;36.53;;;18.98;;
21822;SDS011;11074;48.596;9.238;2023-02-11T00:27:09;34.83;;;19.50;;
21822;SDS011;11074;48.596;9.238;2023-02-11T00:29:35;37.67;;;20.38;;
21822;SDS011;11074;48.596;9.238;2023-02-11T00:32:02;32.65;;;18.98;;
21822;SDS011;11074;48.596;9.238;2023-02-11T00:34:32;34.45;;;18.63;;
21822;SDS011;11074;48.596;9.238;2023-02-11T00:37:00;38.88;;;18.92;;
21822;SDS011;11074;48.596;9.238;2023-02-11T00:39:26;34.50;;;18.85;;
21822;SDS011;11074;48.596;9.238;2023-02-11T00:41:52;36.88;;;19.13;;
21822;SDS011;11074;48.596;9.238;2023-02-11T00:44:18;34.17;;;19.00;;
21822;SDS011;11074;48.596;9.238;2023-02-11T00:46:44;34.72;;;19.95;;
21822;SDS011;11074;48.596;9.238;2023-02-11T00:49:09;35.00;;;18.50;;
21822;SDS011;11074;48.596;9.238;2023-02-11T00:51:35;36.80;;;18.80;;
21822;SDS011;11074;48.596;9.238;2023-02-11T00:54:01;36.17;;;18.85;;
21822;SDS011;11074;48.596;9.238;2023-02-11T00:56:27;34.67;;;18.65;;
21822;SDS011;11074;48.596;9.238;2023-02-11T00:58:52;34.13;;;19.35;;
21822;SDS011;11074;48.596;9.238;2023-02-11T01:01:18;35.30;;;18.70;;
21822;SDS011;11074;48.596;9.238;2023-02-11T01:03:45;32.80;;;18.52;;
21822;SDS011;11074;48.596;9.238;2023-02-11T01:06:11;35.80;;;19.17;;
21822;SDS011;11074;48.596;9.238;2023-02-11T01:08:37;33.53;;;17.92;;
21822;SDS011;11074;48.596;9.238;2023-02-11T01:11:04;34.90;;;18.63;;
21822;SDS011;11074;48.596;9.238;2023-02-11T01:13:36;34.47;;;18.30;;
21822;SDS011;11074;48.596;9.238;2023-02-11T01:16:02;35.13;;;19.23;;
21822;SDS011;11074;48.596;9.238;2023-02-11T01:18:31;33.83;;;18.73;;
21822;SDS011;11074;48.596;9.238;2023-02-11T01:20:57;34.63;;;18.30;;
21822;SDS011;11074;48.596;9.238;2023-02-11T01:23:23;36.85;;;19.33;;
21822;SDS011;11074;48.596;9.238;2023-02-11T01:25:49;35.53;;;18.38;;
21822;SDS011;11074;48.596;9.238;2023-02-11T01:28:16;34.55;;;18.75;;
21822;SDS011;11074;48.596;9.238;2023-02-11T01:30:48;42.50;;;19.70;;
21822;SDS011;11074;48.596;9.238;2023-02-11T01:33:15;37.95;;;20.23;;
21822;SDS011;11074;48.596;9.238;2023-02-11T01:35:41;34.40;;;19.73;;
21822;SDS011;11074;48.596;9.238;2023-02-11T01:38:12;38.42;;;20.38;;
21822;SDS011;11074;48.596;9.238;2023-02-11T01:40:49;38.13;;;19.98;;
21822;SDS011;11074;48.596;9.238;2023-02-11T01:43:25;33.20;;;18.02;;
21822;SDS011;11074;48.596;9.238;2023-02-11T01:45:57;34.67;;;19.00;;
21822;SDS011;11074;48.596;9.238;2023-02-11T01:48:30;35.58;;;18.75;;
21822;SDS011;11074;48.596;9.238;2023-02-11T01:51:06;35.95;;;19.70;;
21822;SDS011;11074;48.596;9.238;2023-02-11T01:53:38;33.28;;;18.45;;
21822;SDS011;11074;48.596;9.238;2023-02-11T01:56:24;34.15;;;18.95;;
21822;SDS011;11074;48.596;9.238;2023-02-11T01:59:17;34.65;;;18.77;;
21822;SDS011;11074;48.596;9.238;2023-02-11T02:01:52;36.20;;;17.95;;
21822;SDS011;11074;48.596;9.238;2023-02-11T02:04:26;36.35;;;19.15;;
21822;SDS011;11074;48.596;9.238;2023-02-11T02:09:42;33.25;;;17.67;;
21822;SDS011;11074;48.596;9.238;2023-02-11T02:12:16;32.13;;;17.55;;
21822;SDS011;11074;48.596;9.238;2023-02-11T02:14:42;34.42;;;18.25;;
21822;SDS011;11074;48.596;9.238;2023-02-11T02:17:15;34.35;;;18.85;;
21822;SDS011;11074;48.596;9.238;2023-02-11T02:20:10;33.08;;;18.25;;
21822;SDS011;11074;48.596;9.238;2023-02-11T02:26:18;32.83;;;18.20;;
21822;SDS011;11074;48.596;9.238;2023-02-11T02:29:14;33.58;;;18.95;;
21822;SDS011;11074;48.596;9.238;2023-02-11T02:40:42;32.42;;;17.52;;
21822;SDS011;11074;48.596;9.238;2023-02-11T02:43:38;33.90;;;17.70;;
21822;SDS011;11074;48.596;9.238;2023-02-11T02:46:11;32.13;;;17.75;;
21822;SDS011;11074;48.596;9.238;2023-02-11T02:48:45;31.88;;;18.48;;
21822;SDS011;11074;48.596;9.238;2023-02-11T02:57:14;34.92;;;18.10;;
21822;SDS011;11074;48.596;9.238;2023-02-11T03:03:20;33.92;;;18.33;;
21822;SDS011;11074;48.596;9.238;2023-02-11T03:10:33;32.20;;;18.02;;
21822;SDS011;11074;48.596;9.238;2023-02-11T03:12:33;32.30;;;18.33;;
21822;SDS011;11074;48.596;9.238;2023-02-11T03:15:02;31.70;;;17.77;;
21822;SDS011;11074;48.596;9.238;2023-02-11T03:17:31;31.70;;;17.20;;
21822;SDS011;11074;48.596;9.238;2023-02-11T03:20:00;32.42;;;17.83;;
21822;SDS011;11074;48.596;9.238;2023-02-11T03:22:31;32.08;;;17.70;;
21822;SDS011;11074;48.596;9.238;2023-02-11T03:25:05;33.92;;;19.77;;
21822;SDS011;11074;48.596;9.238;2023-02-11T03:27:38;34.75;;;18.85;;
21822;SDS011;11074;48.596;9.238;2023-02-11T03:30:24;34.78;;;18.58;;
21822;SDS011;11074;48.596;9.238;2023-02-11T03:33:08;34.45;;;18.48;;
21822;SDS011;11074;48.596;9.238;2023-02-11T03:35:53;32.88;;;18.98;;
21822;SDS011;11074;48.596;9.238;2023-02-11T03:38:32;34.38;;;18.42;;
21822;SDS011;11074;48.596;9.238;2023-02-11T03:41:06;35.58;;;18.70;;
21822;SDS011;11074;48.596;9.238;2023-02-11T03:43:36;34.50;;;18.27;;
21822;SDS011;11074;48.596;9.238;2023-02-11T03:46:08;36.95;;;20.50;;
21822;SDS011;11074;48.596;9.238;2023-02-11T03:48:39;37.38;;;18.05;;
21822;SDS011;11074;48.596;9.238;2023-02-11T03:51:12;33.17;;;17.92;;
21822;SDS011;11074;48.596;9.238;2023-02-11T03:53:42;36.08;;;18.65;;
21822;SDS011;11074;48.596;9.238;2023-02-11T03:56:12;36.53;;;19.05;;
21822;SDS011;11074;48.596;9.238;2023-02-11T04:01:10;33.55;;;17.63;;
21822;SDS011;11074;48.596;9.238;2023-02-11T04:03:36;33.97;;;18.73;;
21822;SDS011;11074;48.596;9.238;2023-02-11T04:06:02;32.35;;;18.45;;
21822;SDS011;11074;48.596;9.238;2023-02-11T04:08:28;31.38;;;17.70;;
21822;SDS011;11074;48.596;9.238;2023-02-11T04:10:55;34.47;;;18.48;;
21822;SDS011;11074;48.596;9.238;2023-02-11T04:13:21;34.92;;;17.38;;
21822;SDS011;11074;48.596;9.238;2023-02-11T04:15:47;30.85;;;18.05;;
21822;SDS011;11074;48.596;9.238;2023-02-11T04:18:12;33.85;;;18.90;;
21822;SDS011;11074;48.596;9.238;2023-02-11T04:20:38;35.15;;;18.83;;
21822;SDS011;11074;48.596;9.238;2023-02-11T04:23:04;35.03;;;19.05;;
21822;SDS011;11074;48.596;9.238;2023-02-11T04:25:29;34.35;;;18.90;;
21822;SDS011;11074;48.596;9.238;2023-02-11T04:27:55;35.00;;;18.80;;
21822;SDS011;11074;48.596;9.238;2023-02-11T04:30:21;35.30;;;19.15;;
21822;SDS011;11074;48.596;9.238;2023-02-11T04:32:46;38.75;;;19.15;;
21822;SDS011;11074;48.596;9.238;2023-02-11T04:35:12;33.28;;;18.95;;
21822;SDS011;11074;48.596;9.238;2023-02-11T04:37:38;35.67;;;19.38;;
21822;SDS011;11074;48.596;9.238;2023-02-11T04:40:04;33.88;;;18.17;;
21822;SDS011;11074;48.596;9.238;2023-02-11T04:42:30;36.80;;;18.98;;
21822;SDS011;11074;48.596;9.238;2023-02-11T04:44:56;32.65;;;17.67;;
21822;SDS011;11074;48.596;9.238;2023-02-11T04:47:21;34.53;;;18.90;;
21822;SDS011;11074;48.596;9.238;2023-02-11T04:49:47;34.08;;;19.02;;
21822;SDS011;11074;48.596;9.238;2023-02-11T04:52:13;33.38;;;18.33;;
21822;SDS011;11074;48.596;9.238;2023-02-11T04:54:38;34.92;;;17.73;;
21822;SDS011;11074;48.596;9.238;2023-02-11T04:57:04;34.45;;;17.52;;
21822;SDS011;11074;48.596;9.238;2023-02-11T04:59:30;30.58;;;18.60;;
21822;SDS011;11074;48.596;9.238;2023-02-11T05:01:56;34.85;;;19.63;;
21822;SDS011;11074;48.596;9.238;2023-02-11T05:04:22;35.72;;;19.25;;
21822;SDS011;11074;48.596;9.238;2023-02-11T05:06:48;34.13;;;18.42;;
21822;SDS011;11074;48.596;9.238;2023-02-11T05:09:13;31.38;;;18.45;;
21822;SDS011;11074;48.596;9.238;2023-02-11T05:11:39;35.88;;;19.02;;
21822;SDS011;11074;48.596;9.238;2023-02-11T05:14:05;33.05;;;18.25;;
21822;SDS011;11074;48.596;9.238;2023-02-11T05:16:31;31.25;;;18.17;;
21822;SDS011;11074;48.596;9.238;2023-02-11T05:18:57;34.25;;;19.13;;
21822;SDS011;11074;48.596;9.238;2023-02-11T05:21:23;34.42;;;18.65;;
21822;SDS011;11074;48.596;9.238;2023-02-11T05:23:49;37.53;;;19.13;;
21822;SDS011;11074;48.596;9.238;2023-02-11T05:26:15;37.55;;;19.70;;
21822;SDS011;11074;48.596;9.238;2023-02-11T05:28:42;35.20;;;20.30;;
21822;SDS011;11074;48.596;9.238;2023-02-11T05:31:09;36.40;;;19.88;;
21822;SDS011;11074;48.596;9.238;2023-02-11T05:33:36;36.70;;;20.02;;
21822;SDS011;11074;48.596;9.238;2023-02-11T05:36:03;34.97;;;19.40;;
21822;SDS011;11074;48.596;9.238;2023-02-11T05:38:33;36.95;;;20.00;;
21822;SDS011;11074;48.596;9.238;2023-02-11T05:41:01;37.47;;;20.30;;
21822;SDS011;11074;48.596;9.238;2023-02-11T05:43:28;35.83;;;19.48;;
21822;SDS011;11074;48.596;9.238;2023-02-11T05:45:54;35.20;;;19.55;;
21822;SDS011;11074;48.596;9.238;2023-02-11T05:48:20;36.83;;;18.73;;
21822;SDS011;11074;48.596;9.238;2023-02-11T05:50:45;34.65;;;20.45;;
21822;SDS011;11074;48.596;9.238;2023-02-11T05:53:11;36.90;;;20.80;;
21822;SDS011;11074;48.596;9.238;2023-02-11T05:55:39;39.42;;;20.85;;
21822;SDS011;11074;48.596;9.238;2023-02-11T05:58:05;40.70;;;21.77;;
21822;SDS011;11074;48.596;9.238;2023-02-11T06:00:31;41.15;;;21.50;;
21822;SDS011;11074;48.596;9.238;2023-02-11T06:02:58;37.45;;;21.40;;
21822;SDS011;11074;48.596;9.238;2023-02-11T06:05:24;37.80;;;21.42;;
21822;SDS011;11074;48.596;9.238;2023-02-11T06:07:50;32.85;;;19.52;;
21822;SDS011;11074;48.596;9.238;2023-02-11T06:10:18;34.33;;;19.58;;
21822;SDS011;11074;48.596;9.238;2023-02-11T06:12:44;39.55;;;20.00;;
21822;SDS011;11074;48.596;9.238;2023-02-11T06:15:10;35.53;;;19.77;;
21822;SDS011;11074;48.596;9.238;2023-02-11T06:17:35;36.63;;;19.88;;
21822;SDS011;11074;48.596;9.238;2023-02-11T06:20:01;36.63;;;20.27;;
21822;SDS011;11074;48.596;9.238;2023-02-11T06:22:30;36.05;;;19.50;;
21822;SDS011;11074;48.596;9.238;2023-02-11T06:24:56;34.38;;;19.58;;
21822;SDS011;11074;48.596;9.238;2023-02-11T06:27:22;35.63;;;19.60;;
21822;SDS011;11074;48.596;9.238;2023-02-11T06:29:48;37.75;;;20.77;;
21822;SDS011;11074;48.596;9.238;2023-02-11T06:32:16;34.55;;;19.65;;
21822;SDS011;11074;48.596;9.238;2023-02-11T06:34:42;35.83;;;20.60;;
21822;SDS011;11074;48.596;9.238;2023-02-11T06:37:08;35.90;;;20.23;;
21822;SDS011;11074;48.596;9.238;2023-02-11T06:39:33;34.35;;;18.92;;
21822;SDS011;11074;48.596;9.238;2023-02-11T06:41:59;39.13;;;20.63;;
21822;SDS011;11074;48.596;9.238;2023-02-11T06:44:25;38.63;;;20.48;;
21822;SDS011;11074;48.596;9.238;2023-02-11T06:46:50;35.85;;;20.00;;
21822;SDS011;11074;48.596;9.238;2023-02-11T06:49:16;34.90;;;19.83;;
21822;SDS011;11074;48.596;9.238;2023-02-11T06:51:42;35.65;;;19.83;;
21822;SDS011;11074;48.596;9.238;2023-02-11T06:54:07;34.30;;;20.30;;
21822;SDS011;11074;48.596;9.238;2023-02-11T06:56:37;37.38;;;20.98;;
21822;SDS011;11074;48.596;9.238;2023-02-11T06:59:05;38.15;;;21.80;;
21822;SDS011;11074;48.596;9.238;2023-02-11T07:01:31;38.15;;;21.45;;
21822;SDS011;11074;48.596;9.238;2023-02-11T07:03:58;38.67;;;20.98;;
21822;SDS011;11074;48.596;9.238;2023-02-11T07:06:25;36.42;;;21.13;;
21822;SDS011;11074;48.596;9.238;2023-02-11T07:08:52;34.53;;;20.65;;
21822;SDS011;11074;48.596;9.238;2023-02-11T07:11:26;36.35;;;20.75;;
21822;SDS011;11074;48.596;9.238;2023-02-11T07:16:24;37.92;;;20.58;;
21822;SDS011;11074;48.596;9.238;2023-02-11T07:18:50;37.45;;;21.10;;
21822;SDS011;11074;48.596;9.238;2023-02-11T07:21:17;38.85;;;21.77;;
21822;SDS011;11074;48.596;9.238;2023-02-11T07:23:46;40.78;;;23.67;;
21822;SDS011;11074;48.596;9.238;2023-02-11T07:26:13;38.22;;;22.65;;
21822;SDS011;11074;48.596;9.238;2023-02-11T07:28:42;37.47;;;21.90;;
21822;SDS011;11074;48.596;9.238;2023-02-11T07:31:09;38.25;;;21.48;;
21822;SDS011;11074;48.596;9.238;2023-02-11T07:33:43;38.15;;;22.02;;
21822;SDS011;11074;48.596;9.238;2023-02-11T07:36:10;35.92;;;21.30;;
21822;SDS011;11074;48.596;9.238;2023-02-11T07:38:38;35.65;;;20.88;;
21822;SDS011;11074;48.596;9.238;2023-02-11T07:41:09;38.67;;;21.45;;
21822;SDS011;11074;48.596;9.238;2023-02-11T07:43:37;37.65;;;20.58;;
21822;SDS011;11074;48.596;9.238;2023-02-11T07:46:05;42.05;;;21.75;;
21822;SDS011;11074;48.596;9.238;2023-02-11T07:48:37;38.83;;;21.83;;
21822;SDS011;11074;48.596;9.238;2023-02-11T07:51:07;38.22;;;21.80;;
21822;SDS011;11074;48.596;9.238;2023-02-11T07:53:50;40.20;;;21.48;;
21822;SDS011;11074;48.596;9.238;2023-02-11T07:56:17;40.95;;;21.92;;
21822;SDS011;11074;48.596;9.238;2023-02-11T07:58:45;38.05;;;21.58;;
21822;SDS011;11074;48.596;9.238;2023-02-11T08:01:19;39.60;;;21.77;;
21822;SDS011;11074;48.596;9.238;2023-02-11T08:03:49;35.45;;;20.33;;
21822;SDS011;11074;48.596;9.238;2023-02-11T08:06:16;40.60;;;21.23;;
21822;SDS011;11074;48.596;9.238;2023-02-11T08:08:44;38.47;;;22.02;;
21822;SDS011;11074;48.596;9.238;2023-02-11T08:11:16;36.15;;;20.38;;
21822;SDS011;11074;48.596;9.238;2023-02-11T08:13:49;39.55;;;22.42;;
21822;SDS011;11074;48.596;9.238;2023-02-11T08:18:49;35.65;;;21.73;;
21822;SDS011;11074;48.596;9.238;2023-02-11T08:21:16;38.63;;;22.85;;
21822;SDS011;11074;48.596;9.238;2023-02-11T08:23:43;39.35;;;22.88;;
21822;SDS011;11074;48.596;9.238;2023-02-11T08:26:17;38.97;;;22.63;;
21822;SDS011;11074;48.596;9.238;2023-02-11T08:28:47;38.72;;;22.90;;
21822;SDS011;11074;48.596;9.238;2023-02-11T08:31:16;36.08;;;21.33;;
21822;SDS011;11074;48.596;9.238;2023-02-11T08:33:46;38.15;;;22.42;;
21822;SDS011;11074;48.596;9.238;2023-02-11T08:36:13;41.28;;;22.23;;
21822;SDS011;11074;48.596;9.238;2023-02-11T08:38:42;39.13;;;21.90;;
21822;SDS011;11074;48.596;9.238;2023-02-11T08:41:08;41.88;;;21.90;;
21822;SDS011;11074;48.596;9.238;2023-02-11T08:43:34;37.17;;;22.27;;
21822;SDS011;11074;48.596;9.238;2023-02-11T08:46:00;38.42;;;22.27;;
21822;SDS011;11074;48.596;9.238;2023-02-11T08:48:27;37.10;;;22.13;;
21822;SDS011;11074;48.596;9.238;2023-02-11T08:50:54;36.45;;;21.77;;
21822;SDS011;11074;48.596;9.238;2023-02-11T08:53:21;35.10;;;20.98;;
21822;SDS011;11074;48.596;9.238;2023-02-11T08:55:51;39.90;;;21.80;;
21822;SDS011;11074;48.596;9.238;2023-02-11T08:58:19;38.20;;;21.98;;
21822;SDS011;11074;48.596;9.238;2023-02-11T09:00:46;35.85;;;21.15;;
21822;SDS011;11074;48.596;9.238;2023-02-11T09:03:13;36.72;;;21.77;;
21822;SDS011;11074;48.596;9.238;2023-02-11T09:05:41;40.95;;;21.05;;
21822;SDS011;11074;48.596;9.238;2023-02-11T09:08:08;40.08;;;21.58;;
21822;SDS011;11074;48.596;9.238;2023-02-11T09:10:34;37.97;;;22.42;;
21822;SDS011;11074;48.596;9.238;2023-02-11T09:13:00;44.42;;;22.48;;
21822;SDS011;11074;48.596;9.238;2023-02-11T09:15:26;35.25;;;21.70;;
21822;SDS011;11074;48.596;9.238;2023-02-11T09:17:51;35.55;;;21.20;;
21822;SDS011;11074;48.596;9.238;2023-02-11T09:20:17;37.55;;;21.17;;
21822;SDS011;11074;48.596;9.238;2023-02-11T09:22:43;34.65;;;20.55;;
21822;SDS011;11074;48.596;9.238;2023-02-11T09:25:10;35.90;;;21.27;;
21822;SDS011;11074;48.596;9.238;2023-02-11T09:27:36;34.30;;;20.92;;
21822;SDS011;11074;48.596;9.238;2023-02-11T09:30:02;37.97;;;21.00;;
21822;SDS011;11074;48.596;9.238;2023-02-11T09:32:28;35.20;;;19.60;;
21822;SDS011;11074;48.596;9.238;2023-02-11T09:34:53;33.25;;;20.17;;
21822;SDS011;11074;48.596;9.238;2023-02-11T09:37:19;34.42;;;20.30;;
21822;SDS011;11074;48.596;9.238;2023-02-11T09:39:45;36.88;;;19.30;;
21822;SDS011;11074;48.596;9.238;2023-02-11T09:45:20;35.53;;;19.65;;
21822;SDS011;11074;48.596;9.238;2023-02-11T09:47:54;30.17;;;18.75;;
21822;SDS011;11074;48.596;9.238;2023-02-11T09:53:00;35.63;;;19.45;;
21822;SDS011;11074;48.596;9.238;2023-02-11T09:55:35;36.03;;;19.38;;
21822;SDS011;11074;48.596;9.238;2023-02-11T09:58:11;34.95;;;19.25;;
21822;SDS011;11074;48.596;9.238;2023-02-11T10:00:51;31.42;;;19.08;;
21822;SDS011;11074;48.596;9.238;2023-02-11T10:24:11;29.48;;;16.65;;
21822;SDS011;11074;48.596;9.238;2023-02-11T10:26:40;27.85;;;16.60;;
21822;SDS011;11074;48.596;9.238;2023-02-11T10:32:03;27.58;;;17.00;;
21822;SDS011;11074;48.596;9.238;2023-02-11T10:34:50;31.60;;;16.95;;
21822;SDS011;11074;48.596;9.238;2023-02-11T10:37:22;34.90;;;17.73;;
21822;SDS011;11074;48.596;9.238;2023-02-11T10:39:48;29.35;;;16.67;;
21822;SDS011;11074;48.596;9.238;2023-02-11T10:42:13;25.45;;;15.98;;
21822;SDS011;11074;48.596;9.238;2023-02-11T10:44:59;27.58;;;15.85;;
21822;SDS011;11074;48.596;9.238;2023-02-11T10:47:31;29.60;;;15.57;;
21822;SDS011;11074;48.596;9.238;2023-02-11T10:55:52;25.60;;;14.90;;
21822;SDS011;11074;48.596;9.238;2023-02-11T10:58:28;26.38;;;14.90;;
21822;SDS011;11074;48.596;9.238;2023-02-11T11:01:00;25.33;;;14.30;;
21822;SDS011;11074;48.596;9.238;2023-02-11T11:03:28;23.05;;;13.57;;
21822;SDS011;11074;48.596;9.238;2023-02-11T11:06:01;23.67;;;14.05;;
21822;SDS011;11074;48.596;9.238;2023-02-11T11:08:37;24.52;;;13.60;;
21822;SDS011;11074;48.596;9.238;2023-02-11T11:11:18;23.50;;;13.77;;
21822;SDS011;11074;48.596;9.238;2023-02-11T11:16:26;25.10;;;13.68;;
21822;SDS011;11074;48.596;9.238;2023-02-11T11:24:05;22.17;;;12.88;;
21822;SDS011;11074;48.596;9.238;2023-02-11T11:26:44;22.10;;;12.05;;
21822;SDS011;11074;48.596;9.238;2023-02-11T11:29:20;23.17;;;12.48;;
21822;SDS011;11074;48.596;9.238;2023-02-11T11:31:55;20.73;;;12.32;;
21822;SDS011;11074;48.596;9.238;2023-02-11T11:34:30;19.52;;;10.82;;
21822;SDS011;11074;48.596;9.238;2023-02-11T11:37:08;18.08;;;10.45;;
21822;SDS011;11074;48.596;9.238;2023-02-11T11:39:37;17.67;;;10.90;;
21822;SDS011;11074;48.596;9.238;2023-02-11T11:42:24;16.75;;;9.35;;
21822;SDS011;11074;48.596;9.238;2023-02-11T11:44:57;14.80;;;7.78;;
21822;SDS011;11074;48.596;9.238;2023-02-11T11:50:49;11.55;;;7.03;;
21822;SDS011;11074;48.596;9.238;2023-02-11T11:53:30;15.55;;;8.55;;
21822;SDS011;11074;48.596;9.238;2023-02-11T11:56:34;15.73;;;9.85;;
21822;SDS011;11074;48.596;9.238;2023-02-11T11:59:12;14.52;;;8.80;;
21822;SDS011;11074;48.596;9.238;2023-02-11T12:02:00;11.65;;;6.18;;
21822;SDS011;11074;48.596;9.238;2023-02-11T12:04:42;12.25;;;6.97;;
21822;SDS011;11074;48.596;9.238;2023-02-11T12:07:33;12.60;;;7.53;;
21822;SDS011;11074;48.596;9.238;2023-02-11T12:15:41;10.70;;;6.90;;
21822;SDS011;11074;48.596;9.238;2023-02-11T12:21:27;14.00;;;7.05;;
21822;SDS011;11074;48.596;9.238;2023-02-11T12:27:11;13.85;;;7.85;;
21822;SDS011;11074;48.596;9.238;2023-02-11T12:30:02;12.43;;;7.85;;
21822;SDS011;11074;48.596;9.238;2023-02-11T12:32:48;11.52;;;7.20;;
21822;SDS011;11074;48.596;9.238;2023-02-11T12:35:53;14.45;;;8.57;;
21822;SDS011;11074;48.596;9.238;2023-02-11T12:38:48;15.13;;;7.80;;
21822;SDS011;11074;48.596;9.238;2023-02-11T12:41:36;18.92;;;10.45;;
21822;SDS011;11074;48.596;9.238;2023-02-11T12:51:17;11.98;;;6.53;;
21822;SDS011;11074;48.596;9.238;2023-02-11T13:02:11;10.57;;;6.90;;
21822;SDS011;11074;48.596;9.238;2023-02-11T13:04:49;12.60;;;7.13;;
21822;SDS011;11074;48.596;9.238;2023-02-11T13:07:27;12.07;;;7.25;;
21822;SDS011;11074;48.596;9.238;2023-02-11T13:12:42;10.73;;;6.68;;
21822;SDS011;11074;48.596;9.238;2023-02-11T13:15:46;11.18;;;7.10;;
21822;SDS011;11074;48.596;9.238;2023-02-11T13:21:28;21.15;;;12.30;;
21822;SDS011;11074;48.596;9.238;2023-02-11T13:24:19;13.05;;;8.98;;
21822;SDS011;11074;48.596;9.238;2023-02-11T13:35:32;9.57;;;5.68;;
21822;SDS011;11074;48.596;9.238;2023-02-11T13:38:17;9.52;;;5.70;;
21822;SDS011;11074;48.596;9.238;2023-02-11T13:40:44;9.98;;;6.75;;
21822;SDS011;11074;48.596;9.238;2023-02-11T13:43:22;11.25;;;5.88;;
21822;SDS011;11074;48.596;9.238;2023-02-11T13:46:01;9.95;;;6.13;;
21822;SDS011;11074;48.596;9.238;2023-02-11T13:48:52;11.48;;;7.18;;
21822;SDS011;11074;48.596;9.238;2023-02-11T13:51:38;12.60;;;8.27;;
21822;SDS011;11074;48.596;9.238;2023-02-11T13:54:07;14.15;;;8.10;;
21822;SDS011;11074;48.596;9.238;2023-02-11T13:57:14;17.98;;;12.18;;
21822;SDS011;11074;48.596;9.238;2023-02-11T14:02:25;14.27;;;9.57;;
21822;SDS011;11074;48.596;9.238;2023-02-11T14:10:52;25.88;;;19.58;;
21822;SDS011;11074;48.596;9.238;2023-02-11T14:13:35;17.80;;;11.45;;
21822;SDS011;11074;48.596;9.238;2023-02-11T14:21:16;16.52;;;11.10;;
21822;SDS011;11074;48.596;9.238;2023-02-11T14:26:39;18.23;;;11.77;;
21822;SDS011;11074;48.596;9.238;2023-02-11T14:29:39;17.45;;;11.45;;
21822;SDS011;11074;48.596;9.238;2023-02-11T14:32:25;17.08;;;11.77;;
21822;SDS011;11074;48.596;9.238;2023-02-11T14:38:30;17.40;;;11.02;;
21822;SDS011;11074;48.596;9.238;2023-02-11T14:41:24;22.58;;;11.40;;
21822;SDS011;11074;48.596;9.238;2023-02-11T14:44:00;17.95;;;11.80;;
21822;SDS011;11074;48.596;9.238;2023-02-11T14:46:36;16.38;;;10.75;;
21822;SDS011;11074;48.596;9.238;2023-02-11T14:49:02;13.13;;;9.80;;
21822;SDS011;11074;48.596;9.238;2023-02-11T14:51:38;14.27;;;9.73;;
21822;SDS011;11074;48.596;9.238;2023-02-11T14:54:09;14.70;;;9.90;;
21822;SDS011;11074;48.596;9.238;2023-02-11T14:56:41;14.82;;;9.50;;
21822;SDS011;11074;48.596;9.238;2023-02-11T14:59:17;13.95;;;9.68;;
21822;SDS011;11074;48.596;9.238;2023-02-11T15:01:50;13.10;;;9.75;;
21822;SDS011;11074;48.596;9.238;2023-02-11T15:04:22;14.88;;;9.25;;
21822;SDS011;11074;48.596;9.238;2023-02-11T15:06:57;13.98;;;8.75;;
21822;SDS011;11074;48.596;9.238;2023-02-11T15:12:04;13.05;;;8.65;;
21822;SDS011;11074;48.596;9.238;2023-02-11T15:14:47;15.32;;;9.20;;
21822;SDS011;11074;48.596;9.238;2023-02-11T15:17:18;13.07;;;8.57;;
21822;SDS011;11074;48.596;9.238;2023-02-11T15:19:50;12.35;;;8.00;;
21822;SDS011;11074;48.596;9.238;2023-02-11T15:25:00;12.73;;;7.90;;
21822;SDS011;11074;48.596;9.238;2023-02-11T15:27:41;10.57;;;7.78;;
21822;SDS011;11074;48.596;9.238;2023-02-11T15:30:18;13.60;;;8.02;;
21822;SDS011;11074;48.596;9.238;2023-02-11T15:32:51;13.52;;;8.15;;
21822;SDS011;11074;48.596;9.238;2023-02-11T15:35:41;13.40;;;7.60;;
21822;SDS011;11074;48.596;9.238;2023-02-11T15:40:37;15.20;;;8.60;;
21822;SDS011;11074;48.596;9.238;2023-02-11T15:43:04;15.68;;;9.10;;
21822;SDS011;11074;48.596;9.238;2023-02-11T15:45:43;14.45;;;8.63;;
21822;SDS011;11074;48.596;9.238;2023-02-11T15:48:15;15.68;;;9.25;;
21822;SDS011;11074;48.596;9.238;2023-02-11T15:51:07;18.35;;;10.88;;
21822;SDS011;11074;48.596;9.238;2023-02-11T15:53:43;15.27;;;10.15;;
21822;SDS011;11074;48.596;9.238;2023-02-11T15:58:54;15.30;;;9.88;;
21822;SDS011;11074;48.596;9.238;2023-02-11T16:01:28;20.27;;;10.25;;
21822;SDS011;11074;48.596;9.238;2023-02-11T16:03:58;15.27;;;9.15;;
21822;SDS011;11074;48.596;9.238;2023-02-11T16:06:26;17.77;;;9.50;;
21822;SDS011;11074;48.596;9.238;2023-02-11T16:11:34;12.98;;;8.93;;
21822;SDS011;11074;48.596;9.238;2023-02-11T16:17:08;16.98;;;9.77;;
21822;SDS011;11074;48.596;9.238;2023-02-11T16:19:46;18.45;;;10.82;;
21822;SDS011;11074;48.596;9.238;2023-02-11T16:22:15;18.95;;;11.23;;
21822;SDS011;11074;48.596;9.238;2023-02-11T16:24:53;17.98;;;11.27;;
21822;SDS011;11074;48.596;9.238;2023-02-11T16:29:54;73.97;;;42.58;;
21822;SDS011;11074;48.596;9.238;2023-02-11T16:32:25;23.77;;;16.00;;
21822;SDS011;11074;48.596;9.238;2023-02-11T16:34:54;68.18;;;46.38;;
21822;SDS011;11074;48.596;9.238;2023-02-11T16:37:22;29.42;;;18.17;;
21822;SDS011;11074;48.596;9.238;2023-02-11T16:39:53;27.88;;;16.55;;
21822;SDS011;11074;48.596;9.238;2023-02-11T16:42:20;21.30;;;10.85;;
21822;SDS011;11074;48.596;9.238;2023-02-11T16:44:46;18.75;;;12.35;;
21822;SDS011;11074;48.596;9.238;2023-02-11T16:47:22;19.80;;;11.70;;
21822;SDS011;11074;48.596;9.238;2023-02-11T16:49:52;22.75;;;11.45;;
21822;SDS011;11074;48.596;9.238;2023-02-11T16:52:19;22.80;;;12.70;;
21822;SDS011;11074;48.596;9.238;2023-02-11T16:54:46;22.42;;;13.30;;
21822;SDS011;11074;48.596;9.238;2023-02-11T16:57:13;23.10;;;13.95;;
21822;SDS011;11074;48.596;9.238;2023-02-11T16:59:52;26.48;;;15.93;;
21822;SDS011;11074;48.596;9.238;2023-02-11T17:02:25;23.88;;;14.23;;
21822;SDS011;11074;48.596;9.238;2023-02-11T17:04:57;22.52;;;13.65;;
21822;SDS011;11074;48.596;9.238;2023-02-11T17:07:26;22.63;;;13.60;;
21822;SDS011;11074;48.596;9.238;2023-02-11T17:09:53;25.00;;;14.32;;
21822;SDS011;11074;48.596;9.238;2023-02-11T17:12:19;29.65;;;15.95;;
21822;SDS011;11074;48.596;9.238;2023-02-11T17:14:45;26.13;;;15.00;;
21822;SDS011;11074;48.596;9.238;2023-02-11T17:17:11;24.35;;;15.95;;
21822;SDS011;11074;48.596;9.238;2023-02-11T17:19:37;22.75;;;14.55;;
21822;SDS011;11074;48.596;9.238;2023-02-11T17:22:03;21.25;;;14.07;;
21822;SDS011;11074;48.596;9.238;2023-02-11T17:24:29;22.08;;;13.05;;
21822;SDS011;11074;48.596;9.238;2023-02-11T17:26:55;23.73;;;14.57;;
21822;SDS011;11074;48.596;9.238;2023-02-11T17:29:21;27.20;;;14.80;;